sensor_id;sensor_type;location;lat;lon;timestamp;P1;durP1;ratioP1;P2;durP2;ratioP2
13552;SDS011;6847;48.830;9.116;2022-10-16T00:02:02;0.10;;;0.10;;
13552;SDS011;6847;48.830;9.116;2022-10-16T00:04:29;0.10;;;0.10;;
13552;SDS011;6847;48.830;9.116;2022-10-16T00:06:56;0.10;;;0.10;;
13552;SDS011;6847;48.830;9.116;2022-10-16T00:09:23;0.10;;;0.10;;
13552;SDS011;6847;48.830;9.116;2022-10-16T00:11:53;0.10;;;0.10;;
13552;SDS011;6847;48.830;9.116;2022-10-16T00:14:19;0.10;;;0.10;;
13552;SDS011;6847;48.830;9.116;2022-10-16T00:16:46;0.10;;;0.10;;
13552;SDS011;6847;48.830;9.116;2022-10-16T00:19:13;0.10;;;0.10;;
13552;SDS011;6847;48.830;9.116;2022-10-16T00:21:43;0.10;;;0.10;;
13552;SDS011;6847;48.830;9.116;2022-10-16T00:24:09;0.10;;;0.10;;
13552;SDS011;6847;48.830;9.116;2022-10-16T00:26:36;0.10;;;0.10;;
13552;SDS011;6847;48.830;9.116;2022-10-16T00:29:06;0.10;;;0.10;;
13552;SDS011;6847;48.830;9.116;2022-10-16T00:31:33;0.10;;;0.10;;
13552;SDS011;6847;48.830;9.116;2022-10-16T00:34:00;0.10;;;0.10;;
13552;SDS011;6847;48.830;9.116;2022-10-16T00:36:27;0.10;;;0.10;;
13552;SDS011;6847;48.830;9.116;2022-10-16T00:38:56;0.10;;;0.10;;
13552;SDS011;6847;48.830;9.116;2022-10-16T00:41:25;0.10;;;0.10;;
13552;SDS011;6847;48.830;9.116;2022-10-16T00:43:54;0.10;;;0.10;;
13552;SDS011;6847;48.830;9.116;2022-10-16T00:46:25;0.10;;;0.10;;
13552;SDS011;6847;48.830;9.116;2022-10-16T00:48:56;0.10;;;0.10;;
13552;SDS011;6847;48.830;9.116;2022-10-16T00:51:28;0.10;;;0.10;;
13552;SDS011;6847;48.830;9.116;2022-10-16T00:53:59;0.10;;;0.10;;
13552;SDS011;6847;48.830;9.116;2022-10-16T00:56:27;0.10;;;0.10;;
13552;SDS011;6847;48.830;9.116;2022-10-16T00:58:55;0.10;;;0.10;;
13552;SDS011;6847;48.830;9.116;2022-10-16T01:01:22;0.15;;;0.15;;
13552;SDS011;6847;48.830;9.116;2022-10-16T01:03:50;0.10;;;0.10;;
13552;SDS011;6847;48.830;9.116;2022-10-16T01:06:22;0.10;;;0.10;;
13552;SDS011;6847;48.830;9.116;2022-10-16T01:08:54;0.10;;;0.10;;
13552;SDS011;6847;48.830;9.116;2022-10-16T01:11:31;0.10;;;0.10;;
13552;SDS011;6847;48.830;9.116;2022-10-16T01:14:08;0.10;;;0.10;;
13552;SDS011;6847;48.830;9.116;2022-10-16T01:16:43;0.10;;;0.10;;
13552;SDS011;6847;48.830;9.116;2022-10-16T01:19:20;0.10;;;0.10;;
13552;SDS011;6847;48.830;9.116;2022-10-16T01:21:59;0.10;;;0.10;;
13552;SDS011;6847;48.830;9.116;2022-10-16T01:24:31;0.10;;;0.10;;
13552;SDS011;6847;48.830;9.116;2022-10-16T01:27:04;0.10;;;0.10;;
13552;SDS011;6847;48.830;9.116;2022-10-16T01:29:34;0.10;;;0.10;;
13552;SDS011;6847;48.830;9.116;2022-10-16T01:32:10;0.10;;;0.10;;
13552;SDS011;6847;48.830;9.116;2022-10-16T01:34:42;0.10;;;0.10;;
13552;SDS011;6847;48.830;9.116;2022-10-16T01:37:14;0.10;;;0.10;;
13552;SDS011;6847;48.830;9.116;2022-10-16T01:39:50;0.20;;;0.20;;
13552;SDS011;6847;48.830;9.116;2022-10-16T01:42:22;0.10;;;0.10;;
13552;SDS011;6847;48.830;9.116;2022-10-16T01:44:56;0.10;;;0.10;;
13552;SDS011;6847;48.830;9.116;2022-10-16T01:47:28;0.10;;;0.10;;
13552;SDS011;6847;48.830;9.116;2022-10-16T01:49:57;0.10;;;0.10;;
13552;SDS011;6847;48.830;9.116;2022-10-16T01:52:26;0.10;;;0.10;;
13552;SDS011;6847;48.830;9.116;2022-10-16T01:54:56;0.10;;;0.10;;
13552;SDS011;6847;48.830;9.116;2022-10-16T01:57:29;0.10;;;0.10;;
13552;SDS011;6847;48.830;9.116;2022-10-16T02:00:01;0.10;;;0.10;;
13552;SDS011;6847;48.830;9.116;2022-10-16T02:02:36;0.10;;;0.10;;
13552;SDS011;6847;48.830;9.116;2022-10-16T02:05:10;0.10;;;0.10;;
13552;SDS011;6847;48.830;9.116;2022-10-16T02:07:42;0.10;;;0.10;;
13552;SDS011;6847;48.830;9.116;2022-10-16T02:10:08;0.10;;;0.10;;
13552;SDS011;6847;48.830;9.116;2022-10-16T02:12:38;0.10;;;0.10;;
13552;SDS011;6847;48.830;9.116;2022-10-16T02:15:08;0.20;;;0.20;;
13552;SDS011;6847;48.830;9.116;2022-10-16T02:17:37;0.08;;;0.08;;
13552;SDS011;6847;48.830;9.116;2022-10-16T02:20:07;0.10;;;0.10;;
13552;SDS011;6847;48.830;9.116;2022-10-16T02:22:35;0.10;;;0.10;;
13552;SDS011;6847;48.830;9.116;2022-10-16T02:25:06;0.10;;;0.10;;
13552;SDS011;6847;48.830;9.116;2022-10-16T02:27:40;0.10;;;0.10;;
13552;SDS011;6847;48.830;9.116;2022-10-16T02:30:12;0.10;;;0.10;;
13552;SDS011;6847;48.830;9.116;2022-10-16T02:32:45;0.10;;;0.10;;
13552;SDS011;6847;48.830;9.116;2022-10-16T02:35:15;0.10;;;0.10;;
13552;SDS011;6847;48.830;9.116;2022-10-16T02:37:46;0.10;;;0.10;;
13552;SDS011;6847;48.830;9.116;2022-10-16T02:40:15;0.10;;;0.10;;
13552;SDS011;6847;48.830;9.116;2022-10-16T02:42:49;0.10;;;0.10;;
13552;SDS011;6847;48.830;9.116;2022-10-16T02:45:17;0.15;;;0.15;;
13552;SDS011;6847;48.830;9.116;2022-10-16T02:47:45;0.10;;;0.10;;
13552;SDS011;6847;48.830;9.116;2022-10-16T02:50:12;0.10;;;0.10;;
13552;SDS011;6847;48.830;9.116;2022-10-16T02:52:39;0.10;;;0.10;;
13552;SDS011;6847;48.830;9.116;2022-10-16T02:55:06;0.10;;;0.10;;
13552;SDS011;6847;48.830;9.116;2022-10-16T02:57:46;0.10;;;0.10;;
13552;SDS011;6847;48.830;9.116;2022-10-16T03:00:15;0.10;;;0.10;;
13552;SDS011;6847;48.830;9.116;2022-10-16T03:02:43;0.10;;;0.10;;
13552;SDS011;6847;48.830;9.116;2022-10-16T03:05:10;0.10;;;0.10;;
13552;SDS011;6847;48.830;9.116;2022-10-16T03:07:39;0.10;;;0.10;;
13552;SDS011;6847;48.830;9.116;2022-10-16T03:10:08;0.10;;;0.10;;
13552;SDS011;6847;48.830;9.116;2022-10-16T03:12:37;0.10;;;0.10;;
13552;SDS011;6847;48.830;9.116;2022-10-16T03:15:09;0.10;;;0.10;;
13552;SDS011;6847;48.830;9.116;2022-10-16T03:17:36;0.10;;;0.10;;
13552;SDS011;6847;48.830;9.116;2022-10-16T03:20:03;0.10;;;0.10;;
13552;SDS011;6847;48.830;9.116;2022-10-16T03:22:32;0.10;;;0.10;;
13552;SDS011;6847;48.830;9.116;2022-10-16T03:24:59;0.10;;;0.10;;
13552;SDS011;6847;48.830;9.116;2022-10-16T03:27:57;0.10;;;0.10;;
13552;SDS011;6847;48.830;9.116;2022-10-16T03:30:25;0.10;;;0.10;;
13552;SDS011;6847;48.830;9.116;2022-10-16T03:32:52;0.10;;;0.10;;
13552;SDS011;6847;48.830;9.116;2022-10-16T03:35:20;0.10;;;0.10;;
13552;SDS011;6847;48.830;9.116;2022-10-16T03:37:47;0.10;;;0.10;;
13552;SDS011;6847;48.830;9.116;2022-10-16T03:40:14;0.10;;;0.10;;
13552;SDS011;6847;48.830;9.116;2022-10-16T03:42:44;0.10;;;0.10;;
13552;SDS011;6847;48.830;9.116;2022-10-16T03:45:10;0.10;;;0.10;;
13552;SDS011;6847;48.830;9.116;2022-10-16T03:47:39;0.10;;;0.10;;
13552;SDS011;6847;48.830;9.116;2022-10-16T03:50:06;0.10;;;0.10;;
13552;SDS011;6847;48.830;9.116;2022-10-16T03:52:33;0.05;;;0.05;;
13552;SDS011;6847;48.830;9.116;2022-10-16T03:55:01;0.10;;;0.10;;
13552;SDS011;6847;48.830;9.116;2022-10-16T03:57:29;0.10;;;0.10;;
13552;SDS011;6847;48.830;9.116;2022-10-16T03:59:56;0.10;;;0.10;;
13552;SDS011;6847;48.830;9.116;2022-10-16T04:02:23;0.10;;;0.10;;
13552;SDS011;6847;48.830;9.116;2022-10-16T04:04:51;0.10;;;0.10;;
13552;SDS011;6847;48.830;9.116;2022-10-16T04:07:19;0.13;;;0.13;;
13552;SDS011;6847;48.830;9.116;2022-10-16T04:09:46;0.17;;;0.17;;
13552;SDS011;6847;48.830;9.116;2022-10-16T04:12:13;0.10;;;0.10;;
13552;SDS011;6847;48.830;9.116;2022-10-16T04:14:42;0.10;;;0.10;;
13552;SDS011;6847;48.830;9.116;2022-10-16T04:17:11;0.10;;;0.10;;
13552;SDS011;6847;48.830;9.116;2022-10-16T04:19:38;0.10;;;0.10;;
13552;SDS011;6847;48.830;9.116;2022-10-16T04:22:11;0.10;;;0.10;;
13552;SDS011;6847;48.830;9.116;2022-10-16T04:24:37;0.10;;;0.10;;
13552;SDS011;6847;48.830;9.116;2022-10-16T04:27:04;0.10;;;0.10;;
13552;SDS011;6847;48.830;9.116;2022-10-16T04:29:31;0.10;;;0.10;;
13552;SDS011;6847;48.830;9.116;2022-10-16T04:31:58;0.10;;;0.10;;
13552;SDS011;6847;48.830;9.116;2022-10-16T04:34:27;0.10;;;0.10;;
13552;SDS011;6847;48.830;9.116;2022-10-16T04:36:55;0.10;;;0.10;;
13552;SDS011;6847;48.830;9.116;2022-10-16T04:39:24;0.10;;;0.10;;
13552;SDS011;6847;48.830;9.116;2022-10-16T04:42:02;0.10;;;0.10;;
13552;SDS011;6847;48.830;9.116;2022-10-16T04:44:30;0.10;;;0.10;;
13552;SDS011;6847;48.830;9.116;2022-10-16T04:46:56;0.10;;;0.10;;
13552;SDS011;6847;48.830;9.116;2022-10-16T04:49:23;0.10;;;0.10;;
13552;SDS011;6847;48.830;9.116;2022-10-16T04:51:52;0.10;;;0.10;;
13552;SDS011;6847;48.830;9.116;2022-10-16T04:54:24;0.10;;;0.10;;
13552;SDS011;6847;48.830;9.116;2022-10-16T04:56:58;0.10;;;0.10;;
13552;SDS011;6847;48.830;9.116;2022-10-16T04:59:25;0.10;;;0.10;;
13552;SDS011;6847;48.830;9.116;2022-10-16T05:01:51;0.10;;;0.10;;
13552;SDS011;6847;48.830;9.116;2022-10-16T05:04:18;0.10;;;0.10;;
13552;SDS011;6847;48.830;9.116;2022-10-16T05:06:45;0.10;;;0.10;;
13552;SDS011;6847;48.830;9.116;2022-10-16T05:09:14;0.10;;;0.10;;
13552;SDS011;6847;48.830;9.116;2022-10-16T05:11:45;0.10;;;0.10;;
13552;SDS011;6847;48.830;9.116;2022-10-16T05:14:12;0.10;;;0.10;;
13552;SDS011;6847;48.830;9.116;2022-10-16T05:16:40;0.10;;;0.10;;
13552;SDS011;6847;48.830;9.116;2022-10-16T05:19:07;0.10;;;0.10;;
13552;SDS011;6847;48.830;9.116;2022-10-16T05:21:35;0.10;;;0.10;;
13552;SDS011;6847;48.830;9.116;2022-10-16T05:24:08;0.10;;;0.10;;
13552;SDS011;6847;48.830;9.116;2022-10-16T05:26:35;0.08;;;0.08;;
13552;SDS011;6847;48.830;9.116;2022-10-16T05:29:03;0.10;;;0.10;;
13552;SDS011;6847;48.830;9.116;2022-10-16T05:31:30;0.10;;;0.10;;
13552;SDS011;6847;48.830;9.116;2022-10-16T05:33:58;0.10;;;0.10;;
13552;SDS011;6847;48.830;9.116;2022-10-16T05:36:27;0.10;;;0.10;;
13552;SDS011;6847;48.830;9.116;2022-10-16T05:38:54;0.10;;;0.10;;
13552;SDS011;6847;48.830;9.116;2022-10-16T05:41:21;0.10;;;0.10;;
13552;SDS011;6847;48.830;9.116;2022-10-16T05:43:52;0.10;;;0.10;;
13552;SDS011;6847;48.830;9.116;2022-10-16T05:46:21;0.10;;;0.10;;
13552;SDS011;6847;48.830;9.116;2022-10-16T05:48:48;0.10;;;0.10;;
13552;SDS011;6847;48.830;9.116;2022-10-16T05:51:19;0.17;;;0.17;;
13552;SDS011;6847;48.830;9.116;2022-10-16T05:53:46;0.10;;;0.10;;
13552;SDS011;6847;48.830;9.116;2022-10-16T05:56:13;0.10;;;0.10;;
13552;SDS011;6847;48.830;9.116;2022-10-16T05:58:41;0.10;;;0.10;;
13552;SDS011;6847;48.830;9.116;2022-10-16T06:01:10;0.10;;;0.10;;
13552;SDS011;6847;48.830;9.116;2022-10-16T06:03:41;0.10;;;0.10;;
13552;SDS011;6847;48.830;9.116;2022-10-16T06:06:09;0.10;;;0.10;;
13552;SDS011;6847;48.830;9.116;2022-10-16T06:08:37;0.10;;;0.10;;
13552;SDS011;6847;48.830;9.116;2022-10-16T06:11:06;0.00;;;0.00;;
13552;SDS011;6847;48.830;9.116;2022-10-16T06:13:34;0.10;;;0.10;;
13552;SDS011;6847;48.830;9.116;2022-10-16T06:16:02;0.10;;;0.10;;
13552;SDS011;6847;48.830;9.116;2022-10-16T06:18:30;0.10;;;0.10;;
13552;SDS011;6847;48.830;9.116;2022-10-16T06:20:58;0.10;;;0.10;;
13552;SDS011;6847;48.830;9.116;2022-10-16T06:23:29;0.10;;;0.10;;
13552;SDS011;6847;48.830;9.116;2022-10-16T06:26:03;0.10;;;0.10;;
13552;SDS011;6847;48.830;9.116;2022-10-16T06:28:31;0.10;;;0.10;;
13552;SDS011;6847;48.830;9.116;2022-10-16T06:31:00;0.10;;;0.10;;
13552;SDS011;6847;48.830;9.116;2022-10-16T06:33:28;0.10;;;0.10;;
13552;SDS011;6847;48.830;9.116;2022-10-16T06:36:04;0.10;;;0.10;;
13552;SDS011;6847;48.830;9.116;2022-10-16T06:38:32;0.10;;;0.10;;
13552;SDS011;6847;48.830;9.116;2022-10-16T06:41:00;0.10;;;0.10;;
13552;SDS011;6847;48.830;9.116;2022-10-16T06:43:30;0.20;;;0.20;;
13552;SDS011;6847;48.830;9.116;2022-10-16T06:46:00;0.10;;;0.10;;
13552;SDS011;6847;48.830;9.116;2022-10-16T06:48:29;0.10;;;0.10;;
13552;SDS011;6847;48.830;9.116;2022-10-16T06:50:57;0.10;;;0.10;;
13552;SDS011;6847;48.830;9.116;2022-10-16T06:53:27;0.10;;;0.10;;
13552;SDS011;6847;48.830;9.116;2022-10-16T06:55:56;0.10;;;0.10;;
13552;SDS011;6847;48.830;9.116;2022-10-16T06:58:23;0.10;;;0.10;;
13552;SDS011;6847;48.830;9.116;2022-10-16T07:00:55;0.20;;;0.20;;
13552;SDS011;6847;48.830;9.116;2022-10-16T07:03:22;0.10;;;0.10;;
13552;SDS011;6847;48.830;9.116;2022-10-16T07:05:50;0.10;;;0.10;;
13552;SDS011;6847;48.830;9.116;2022-10-16T07:08:17;0.10;;;0.10;;
13552;SDS011;6847;48.830;9.116;2022-10-16T07:10:45;0.20;;;0.20;;
13552;SDS011;6847;48.830;9.116;2022-10-16T07:13:16;0.10;;;0.10;;
13552;SDS011;6847;48.830;9.116;2022-10-16T07:15:45;0.10;;;0.10;;
13552;SDS011;6847;48.830;9.116;2022-10-16T07:18:13;0.10;;;0.10;;
13552;SDS011;6847;48.830;9.116;2022-10-16T07:20:43;0.10;;;0.10;;
13552;SDS011;6847;48.830;9.116;2022-10-16T07:23:10;0.10;;;0.10;;
13552;SDS011;6847;48.830;9.116;2022-10-16T07:25:38;0.10;;;0.10;;
13552;SDS011;6847;48.830;9.116;2022-10-16T07:28:06;0.10;;;0.10;;
13552;SDS011;6847;48.830;9.116;2022-10-16T07:30:34;0.10;;;0.10;;
13552;SDS011;6847;48.830;9.116;2022-10-16T07:33:02;0.10;;;0.10;;
13552;SDS011;6847;48.830;9.116;2022-10-16T07:35:29;0.10;;;0.10;;
13552;SDS011;6847;48.830;9.116;2022-10-16T07:38:02;0.10;;;0.10;;
13552;SDS011;6847;48.830;9.116;2022-10-16T07:40:30;0.10;;;0.10;;
13552;SDS011;6847;48.830;9.116;2022-10-16T07:42:56;0.00;;;0.00;;
13552;SDS011;6847;48.830;9.116;2022-10-16T07:45:25;0.10;;;0.10;;
13552;SDS011;6847;48.830;9.116;2022-10-16T07:47:51;0.20;;;0.20;;
13552;SDS011;6847;48.830;9.116;2022-10-16T07:50:18;0.10;;;0.10;;
13552;SDS011;6847;48.830;9.116;2022-10-16T07:52:45;0.10;;;0.10;;
13552;SDS011;6847;48.830;9.116;2022-10-16T07:55:14;0.10;;;0.10;;
13552;SDS011;6847;48.830;9.116;2022-10-16T07:57:41;0.10;;;0.10;;
13552;SDS011;6847;48.830;9.116;2022-10-16T08:00:09;0.10;;;0.10;;
13552;SDS011;6847;48.830;9.116;2022-10-16T08:02:40;0.10;;;0.10;;
13552;SDS011;6847;48.830;9.116;2022-10-16T08:05:07;0.10;;;0.10;;
13552;SDS011;6847;48.830;9.116;2022-10-16T08:07:34;0.10;;;0.10;;
13552;SDS011;6847;48.830;9.116;2022-10-16T08:10:01;0.10;;;0.10;;
13552;SDS011;6847;48.830;9.116;2022-10-16T08:12:28;0.10;;;0.10;;
13552;SDS011;6847;48.830;9.116;2022-10-16T08:14:56;0.20;;;0.20;;
13552;SDS011;6847;48.830;9.116;2022-10-16T08:17:22;0.10;;;0.10;;
13552;SDS011;6847;48.830;9.116;2022-10-16T08:19:52;0.10;;;0.10;;
13552;SDS011;6847;48.830;9.116;2022-10-16T08:22:20;0.10;;;0.10;;
13552;SDS011;6847;48.830;9.116;2022-10-16T08:24:47;0.20;;;0.20;;
13552;SDS011;6847;48.830;9.116;2022-10-16T08:27:14;0.10;;;0.10;;
13552;SDS011;6847;48.830;9.116;2022-10-16T08:29:41;0.10;;;0.10;;
13552;SDS011;6847;48.830;9.116;2022-10-16T08:32:13;0.20;;;0.20;;
13552;SDS011;6847;48.830;9.116;2022-10-16T08:34:39;0.10;;;0.10;;
13552;SDS011;6847;48.830;9.116;2022-10-16T08:37:09;0.10;;;0.10;;
13552;SDS011;6847;48.830;9.116;2022-10-16T08:39:38;0.20;;;0.20;;
13552;SDS011;6847;48.830;9.116;2022-10-16T08:42:11;0.13;;;0.13;;
13552;SDS011;6847;48.830;9.116;2022-10-16T08:45:07;0.10;;;0.10;;
13552;SDS011;6847;48.830;9.116;2022-10-16T08:50:38;0.10;;;0.10;;
13552;SDS011;6847;48.830;9.116;2022-10-16T08:53:13;0.15;;;0.15;;
13552;SDS011;6847;48.830;9.116;2022-10-16T08:55:46;0.20;;;0.20;;
13552;SDS011;6847;48.830;9.116;2022-10-16T08:58:17;0.10;;;0.10;;
13552;SDS011;6847;48.830;9.116;2022-10-16T09:00:48;0.10;;;0.10;;
13552;SDS011;6847;48.830;9.116;2022-10-16T09:03:24;0.10;;;0.10;;
13552;SDS011;6847;48.830;9.116;2022-10-16T09:06:17;0.20;;;0.20;;
13552;SDS011;6847;48.830;9.116;2022-10-16T09:08:58;0.10;;;0.10;;
13552;SDS011;6847;48.830;9.116;2022-10-16T09:11:39;0.10;;;0.10;;
13552;SDS011;6847;48.830;9.116;2022-10-16T09:14:58;0.10;;;0.10;;
13552;SDS011;6847;48.830;9.116;2022-10-16T09:17:40;0.15;;;0.15;;
13552;SDS011;6847;48.830;9.116;2022-10-16T09:20:30;0.10;;;0.10;;
13552;SDS011;6847;48.830;9.116;2022-10-16T09:23:14;0.10;;;0.10;;
13552;SDS011;6847;48.830;9.116;2022-10-16T09:25:49;0.10;;;0.10;;
13552;SDS011;6847;48.830;9.116;2022-10-16T09:28:18;0.10;;;0.10;;
13552;SDS011;6847;48.830;9.116;2022-10-16T09:30:52;0.10;;;0.10;;
13552;SDS011;6847;48.830;9.116;2022-10-16T09:33:22;0.10;;;0.10;;
13552;SDS011;6847;48.830;9.116;2022-10-16T09:35:52;0.10;;;0.10;;
13552;SDS011;6847;48.830;9.116;2022-10-16T09:38:21;0.20;;;0.20;;
13552;SDS011;6847;48.830;9.116;2022-10-16T09:40:51;0.10;;;0.10;;
13552;SDS011;6847;48.830;9.116;2022-10-16T09:43:20;0.10;;;0.10;;
13552;SDS011;6847;48.830;9.116;2022-10-16T09:45:56;0.20;;;0.20;;
13552;SDS011;6847;48.830;9.116;2022-10-16T09:48:25;0.10;;;0.10;;
13552;SDS011;6847;48.830;9.116;2022-10-16T09:50:56;0.35;;;0.32;;
13552;SDS011;6847;48.830;9.116;2022-10-16T09:53:38;0.10;;;0.10;;
13552;SDS011;6847;48.830;9.116;2022-10-16T09:56:12;0.10;;;0.10;;
13552;SDS011;6847;48.830;9.116;2022-10-16T09:58:49;0.10;;;0.10;;
13552;SDS011;6847;48.830;9.116;2022-10-16T10:01:17;0.17;;;0.17;;
13552;SDS011;6847;48.830;9.116;2022-10-16T10:03:45;0.20;;;0.20;;
13552;SDS011;6847;48.830;9.116;2022-10-16T10:06:16;0.20;;;0.20;;
13552;SDS011;6847;48.830;9.116;2022-10-16T10:08:58;0.30;;;0.30;;
13552;SDS011;6847;48.830;9.116;2022-10-16T10:11:38;0.10;;;0.10;;
13552;SDS011;6847;48.830;9.116;2022-10-16T10:14:13;0.20;;;0.20;;
13552;SDS011;6847;48.830;9.116;2022-10-16T10:16:49;0.20;;;0.20;;
13552;SDS011;6847;48.830;9.116;2022-10-16T10:19:21;0.20;;;0.20;;
13552;SDS011;6847;48.830;9.116;2022-10-16T10:21:54;0.10;;;0.10;;
13552;SDS011;6847;48.830;9.116;2022-10-16T10:24:23;0.17;;;0.17;;
13552;SDS011;6847;48.830;9.116;2022-10-16T10:26:54;0.20;;;0.20;;
13552;SDS011;6847;48.830;9.116;2022-10-16T10:29:32;0.20;;;0.20;;
13552;SDS011;6847;48.830;9.116;2022-10-16T10:32:16;0.10;;;0.10;;
13552;SDS011;6847;48.830;9.116;2022-10-16T10:34:53;0.20;;;0.20;;
13552;SDS011;6847;48.830;9.116;2022-10-16T10:37:37;0.20;;;0.20;;
13552;SDS011;6847;48.830;9.116;2022-10-16T10:40:22;0.20;;;0.20;;
13552;SDS011;6847;48.830;9.116;2022-10-16T10:42:59;0.10;;;0.10;;
13552;SDS011;6847;48.830;9.116;2022-10-16T10:45:37;0.13;;;0.13;;
13552;SDS011;6847;48.830;9.116;2022-10-16T10:48:24;0.30;;;0.30;;
13552;SDS011;6847;48.830;9.116;2022-10-16T10:51:08;0.40;;;0.40;;
13552;SDS011;6847;48.830;9.116;2022-10-16T10:53:41;0.20;;;0.20;;
13552;SDS011;6847;48.830;9.116;2022-10-16T10:56:21;0.30;;;0.30;;
13552;SDS011;6847;48.830;9.116;2022-10-16T11:01:39;0.20;;;0.20;;
13552;SDS011;6847;48.830;9.116;2022-10-16T11:07:20;0.30;;;0.30;;
13552;SDS011;6847;48.830;9.116;2022-10-16T11:09:56;0.25;;;0.25;;
13552;SDS011;6847;48.830;9.116;2022-10-16T11:12:27;0.30;;;0.30;;
13552;SDS011;6847;48.830;9.116;2022-10-16T11:15:03;0.22;;;0.22;;
13552;SDS011;6847;48.830;9.116;2022-10-16T11:17:40;0.20;;;0.20;;
13552;SDS011;6847;48.830;9.116;2022-10-16T11:20:13;0.30;;;0.30;;
13552;SDS011;6847;48.830;9.116;2022-10-16T11:22:44;0.15;;;0.15;;
13552;SDS011;6847;48.830;9.116;2022-10-16T11:25:16;0.25;;;0.25;;
13552;SDS011;6847;48.830;9.116;2022-10-16T11:27:47;0.30;;;0.30;;
13552;SDS011;6847;48.830;9.116;2022-10-16T11:30:20;0.30;;;0.30;;
13552;SDS011;6847;48.830;9.116;2022-10-16T11:32:56;0.20;;;0.20;;
13552;SDS011;6847;48.830;9.116;2022-10-16T11:35:33;0.17;;;0.17;;
13552;SDS011;6847;48.830;9.116;2022-10-16T11:38:08;0.20;;;0.20;;
13552;SDS011;6847;48.830;9.116;2022-10-16T11:40:51;0.30;;;0.30;;
13552;SDS011;6847;48.830;9.116;2022-10-16T11:43:25;0.30;;;0.30;;
13552;SDS011;6847;48.830;9.116;2022-10-16T11:46:01;0.28;;;0.28;;
13552;SDS011;6847;48.830;9.116;2022-10-16T11:48:35;0.30;;;0.30;;
13552;SDS011;6847;48.830;9.116;2022-10-16T11:51:06;0.38;;;0.38;;
13552;SDS011;6847;48.830;9.116;2022-10-16T11:53:43;0.20;;;0.20;;
13552;SDS011;6847;48.830;9.116;2022-10-16T11:56:13;0.20;;;0.20;;
13552;SDS011;6847;48.830;9.116;2022-10-16T11:58:48;0.30;;;0.30;;
13552;SDS011;6847;48.830;9.116;2022-10-16T12:01:24;0.30;;;0.30;;
13552;SDS011;6847;48.830;9.116;2022-10-16T12:04:01;0.30;;;0.30;;
13552;SDS011;6847;48.830;9.116;2022-10-16T12:06:35;0.30;;;0.30;;
13552;SDS011;6847;48.830;9.116;2022-10-16T12:09:09;0.20;;;0.20;;
13552;SDS011;6847;48.830;9.116;2022-10-16T12:11:44;0.20;;;0.20;;
13552;SDS011;6847;48.830;9.116;2022-10-16T12:14:19;0.25;;;0.25;;
13552;SDS011;6847;48.830;9.116;2022-10-16T12:17:04;0.30;;;0.30;;
13552;SDS011;6847;48.830;9.116;2022-10-16T12:20:00;0.20;;;0.20;;
13552;SDS011;6847;48.830;9.116;2022-10-16T12:22:47;0.20;;;0.20;;
13552;SDS011;6847;48.830;9.116;2022-10-16T12:25:24;0.20;;;0.20;;
13552;SDS011;6847;48.830;9.116;2022-10-16T12:27:54;0.25;;;0.25;;
13552;SDS011;6847;48.830;9.116;2022-10-16T12:34:01;0.30;;;0.30;;
13552;SDS011;6847;48.830;9.116;2022-10-16T12:36:40;0.22;;;0.22;;
13552;SDS011;6847;48.830;9.116;2022-10-16T12:39:16;0.30;;;0.30;;
13552;SDS011;6847;48.830;9.116;2022-10-16T12:42:02;0.30;;;0.30;;
13552;SDS011;6847;48.830;9.116;2022-10-16T12:44:33;0.20;;;0.20;;
13552;SDS011;6847;48.830;9.116;2022-10-16T12:47:01;0.30;;;0.30;;
13552;SDS011;6847;48.830;9.116;2022-10-16T12:49:35;0.22;;;0.22;;
13552;SDS011;6847;48.830;9.116;2022-10-16T12:54:58;0.45;;;0.45;;
13552;SDS011;6847;48.830;9.116;2022-10-16T12:57:32;0.38;;;0.38;;
13552;SDS011;6847;48.830;9.116;2022-10-16T13:00:10;0.25;;;0.25;;
13552;SDS011;6847;48.830;9.116;2022-10-16T13:02:49;0.20;;;0.20;;
13552;SDS011;6847;48.830;9.116;2022-10-16T13:05:38;0.20;;;0.20;;
13552;SDS011;6847;48.830;9.116;2022-10-16T13:08:23;0.30;;;0.30;;
13552;SDS011;6847;48.830;9.116;2022-10-16T13:11:02;0.43;;;0.43;;
13552;SDS011;6847;48.830;9.116;2022-10-16T13:13:39;0.30;;;0.30;;
13552;SDS011;6847;48.830;9.116;2022-10-16T13:16:49;0.40;;;0.40;;
13552;SDS011;6847;48.830;9.116;2022-10-16T13:19:24;0.22;;;0.22;;
13552;SDS011;6847;48.830;9.116;2022-10-16T13:22:03;0.38;;;0.38;;
13552;SDS011;6847;48.830;9.116;2022-10-16T13:24:40;0.30;;;0.30;;
13552;SDS011;6847;48.830;9.116;2022-10-16T13:27:22;0.40;;;0.40;;
13552;SDS011;6847;48.830;9.116;2022-10-16T13:30:00;0.30;;;0.30;;
13552;SDS011;6847;48.830;9.116;2022-10-16T13:32:38;0.30;;;0.30;;
13552;SDS011;6847;48.830;9.116;2022-10-16T13:35:23;0.30;;;0.30;;
13552;SDS011;6847;48.830;9.116;2022-10-16T13:38:03;0.30;;;0.30;;
13552;SDS011;6847;48.830;9.116;2022-10-16T13:40:34;0.30;;;0.30;;
13552;SDS011;6847;48.830;9.116;2022-10-16T13:43:02;0.30;;;0.30;;
13552;SDS011;6847;48.830;9.116;2022-10-16T13:45:29;0.20;;;0.20;;
13552;SDS011;6847;48.830;9.116;2022-10-16T13:48:02;0.20;;;0.20;;
13552;SDS011;6847;48.830;9.116;2022-10-16T13:53:43;0.25;;;0.25;;
13552;SDS011;6847;48.830;9.116;2022-10-16T13:56:14;0.20;;;0.20;;
13552;SDS011;6847;48.830;9.116;2022-10-16T13:58:58;0.30;;;0.30;;
13552;SDS011;6847;48.830;9.116;2022-10-16T14:01:29;0.32;;;0.32;;
13552;SDS011;6847;48.830;9.116;2022-10-16T14:06:36;0.25;;;0.25;;
13552;SDS011;6847;48.830;9.116;2022-10-16T14:09:29;0.15;;;0.15;;
13552;SDS011;6847;48.830;9.116;2022-10-16T14:12:02;0.28;;;0.28;;
13552;SDS011;6847;48.830;9.116;2022-10-16T14:14:40;0.20;;;0.20;;
13552;SDS011;6847;48.830;9.116;2022-10-16T14:17:13;0.30;;;0.30;;
13552;SDS011;6847;48.830;9.116;2022-10-16T14:19:44;0.30;;;0.30;;
13552;SDS011;6847;48.830;9.116;2022-10-16T14:22:22;0.22;;;0.22;;
13552;SDS011;6847;48.830;9.116;2022-10-16T14:25:15;0.30;;;0.30;;
13552;SDS011;6847;48.830;9.116;2022-10-16T14:27:57;0.17;;;0.17;;
13552;SDS011;6847;48.830;9.116;2022-10-16T14:30:27;0.30;;;0.30;;
13552;SDS011;6847;48.830;9.116;2022-10-16T14:32:57;0.30;;;0.30;;
13552;SDS011;6847;48.830;9.116;2022-10-16T14:35:27;0.20;;;0.20;;
13552;SDS011;6847;48.830;9.116;2022-10-16T14:37:58;0.20;;;0.20;;
13552;SDS011;6847;48.830;9.116;2022-10-16T14:40:29;0.10;;;0.10;;
13552;SDS011;6847;48.830;9.116;2022-10-16T14:42:57;0.25;;;0.25;;
13552;SDS011;6847;48.830;9.116;2022-10-16T14:45:28;0.20;;;0.20;;
13552;SDS011;6847;48.830;9.116;2022-10-16T14:48:14;0.20;;;0.20;;
13552;SDS011;6847;48.830;9.116;2022-10-16T14:50:45;0.20;;;0.20;;
13552;SDS011;6847;48.830;9.116;2022-10-16T14:53:12;0.30;;;0.30;;
13552;SDS011;6847;48.830;9.116;2022-10-16T14:55:41;0.20;;;0.20;;
13552;SDS011;6847;48.830;9.116;2022-10-16T14:58:13;0.20;;;0.20;;
13552;SDS011;6847;48.830;9.116;2022-10-16T15:00:42;0.10;;;0.10;;
13552;SDS011;6847;48.830;9.116;2022-10-16T15:03:14;0.22;;;0.22;;
13552;SDS011;6847;48.830;9.116;2022-10-16T15:05:42;0.22;;;0.22;;
13552;SDS011;6847;48.830;9.116;2022-10-16T15:08:09;0.20;;;0.20;;
13552;SDS011;6847;48.830;9.116;2022-10-16T15:10:38;0.20;;;0.20;;
13552;SDS011;6847;48.830;9.116;2022-10-16T15:13:11;0.20;;;0.20;;
13552;SDS011;6847;48.830;9.116;2022-10-16T15:15:41;0.22;;;0.22;;
13552;SDS011;6847;48.830;9.116;2022-10-16T15:18:10;0.22;;;0.22;;
13552;SDS011;6847;48.830;9.116;2022-10-16T15:20:47;0.10;;;0.10;;
13552;SDS011;6847;48.830;9.116;2022-10-16T15:23:15;0.28;;;0.28;;
13552;SDS011;6847;48.830;9.116;2022-10-16T15:25:45;0.20;;;0.20;;
13552;SDS011;6847;48.830;9.116;2022-10-16T15:28:15;0.20;;;0.20;;
13552;SDS011;6847;48.830;9.116;2022-10-16T15:30:46;0.20;;;0.20;;
13552;SDS011;6847;48.830;9.116;2022-10-16T15:33:16;0.30;;;0.30;;
13552;SDS011;6847;48.830;9.116;2022-10-16T15:35:46;0.30;;;0.30;;
13552;SDS011;6847;48.830;9.116;2022-10-16T15:38:13;0.20;;;0.20;;
13552;SDS011;6847;48.830;9.116;2022-10-16T15:40:40;0.20;;;0.20;;
13552;SDS011;6847;48.830;9.116;2022-10-16T15:43:08;0.25;;;0.25;;
13552;SDS011;6847;48.830;9.116;2022-10-16T15:45:38;0.20;;;0.20;;
13552;SDS011;6847;48.830;9.116;2022-10-16T15:48:09;0.20;;;0.20;;
13552;SDS011;6847;48.830;9.116;2022-10-16T15:50:38;0.20;;;0.20;;